sensor_id;sensor_type;location;lat;lon;timestamp;P1;durP1;ratioP1;P2;durP2;ratioP2
75504;SDS011;64085;54.974;73.410;2023-09-12T00:00:19;0.57;;;0.50;;
75504;SDS011;64085;54.974;73.410;2023-09-12T00:02:44;1.98;;;0.70;;
75504;SDS011;64085;54.974;73.410;2023-09-12T00:05:09;0.60;;;0.43;;
75504;SDS011;64085;54.974;73.410;2023-09-12T00:07:35;0.40;;;0.40;;
75504;SDS011;64085;54.974;73.410;2023-09-12T00:10:02;1.25;;;0.85;;
75504;SDS011;64085;54.974;73.410;2023-09-12T00:12:27;3.53;;;0.77;;
75504;SDS011;64085;54.974;73.410;2023-09-12T00:14:52;2.95;;;1.30;;
75504;SDS011;64085;54.974;73.410;2023-09-12T00:17:18;0.85;;;0.70;;
75504;SDS011;64085;54.974;73.410;2023-09-12T00:19:46;0.63;;;0.50;;
75504;SDS011;64085;54.974;73.410;2023-09-12T00:22:11;0.50;;;0.38;;
75504;SDS011;64085;54.974;73.410;2023-09-12T00:24:36;3.05;;;1.10;;
75504;SDS011;64085;54.974;73.410;2023-09-12T00:27:03;1.38;;;0.68;;
75504;SDS011;64085;54.974;73.410;2023-09-12T00:29:30;1.02;;;0.47;;
75504;SDS011;64085;54.974;73.410;2023-09-12T00:31:55;2.10;;;0.63;;
75504;SDS011;64085;54.974;73.410;2023-09-12T00:34:20;3.03;;;1.00;;
75504;SDS011;64085;54.974;73.410;2023-09-12T00:36:46;3.85;;;1.20;;
75504;SDS011;64085;54.974;73.410;2023-09-12T00:39:11;2.03;;;0.95;;
75504;SDS011;64085;54.974;73.410;2023-09-12T00:41:37;5.55;;;1.45;;
75504;SDS011;64085;54.974;73.410;2023-09-12T00:44:02;5.05;;;1.75;;
75504;SDS011;64085;54.974;73.410;2023-09-12T00:46:28;4.32;;;1.45;;
75504;SDS011;64085;54.974;73.410;2023-09-12T00:48:53;0.95;;;0.70;;
75504;SDS011;64085;54.974;73.410;2023-09-12T00:51:19;2.90;;;0.90;;
75504;SDS011;64085;54.974;73.410;2023-09-12T00:53:46;4.50;;;1.20;;
75504;SDS011;64085;54.974;73.410;2023-09-12T00:56:12;2.78;;;0.90;;
75504;SDS011;64085;54.974;73.410;2023-09-12T00:58:37;4.13;;;1.10;;
75504;SDS011;64085;54.974;73.410;2023-09-12T01:01:03;2.70;;;1.23;;
75504;SDS011;64085;54.974;73.410;2023-09-12T01:03:29;1.90;;;0.82;;
75504;SDS011;64085;54.974;73.410;2023-09-12T01:05:55;2.80;;;1.67;;
75504;SDS011;64085;54.974;73.410;2023-09-12T01:08:21;4.22;;;1.38;;
75504;SDS011;64085;54.974;73.410;2023-09-12T01:10:47;12.32;;;1.42;;
75504;SDS011;64085;54.974;73.410;2023-09-12T01:13:14;1.80;;;1.42;;
75504;SDS011;64085;54.974;73.410;2023-09-12T01:15:40;6.63;;;1.55;;
75504;SDS011;64085;54.974;73.410;2023-09-12T01:18:06;9.25;;;3.38;;
75504;SDS011;64085;54.974;73.410;2023-09-12T01:20:34;5.60;;;1.95;;
75504;SDS011;64085;54.974;73.410;2023-09-12T01:28:13;5.53;;;1.98;;
75504;SDS011;64085;54.974;73.410;2023-09-12T01:30:41;5.40;;;1.90;;
75504;SDS011;64085;54.974;73.410;2023-09-12T01:33:07;3.47;;;2.40;;
75504;SDS011;64085;54.974;73.410;2023-09-12T01:35:32;3.72;;;1.20;;
75504;SDS011;64085;54.974;73.410;2023-09-12T01:37:58;9.73;;;2.22;;
75504;SDS011;64085;54.974;73.410;2023-09-12T01:40:33;7.05;;;2.58;;
75504;SDS011;64085;54.974;73.410;2023-09-12T01:42:59;2.90;;;2.67;;
75504;SDS011;64085;54.974;73.410;2023-09-12T01:45:25;4.45;;;1.95;;
75504;SDS011;64085;54.974;73.410;2023-09-12T01:47:51;3.25;;;1.27;;
75504;SDS011;64085;54.974;73.410;2023-09-12T01:50:17;3.90;;;2.25;;
75504;SDS011;64085;54.974;73.410;2023-09-12T01:52:42;3.35;;;2.38;;
75504;SDS011;64085;54.974;73.410;2023-09-12T01:55:08;10.65;;;7.03;;
75504;SDS011;64085;54.974;73.410;2023-09-12T01:57:35;7.35;;;4.50;;
75504;SDS011;64085;54.974;73.410;2023-09-12T02:00:01;6.70;;;2.03;;
75504;SDS011;64085;54.974;73.410;2023-09-12T02:02:26;3.72;;;1.92;;
75504;SDS011;64085;54.974;73.410;2023-09-12T02:05:37;6.13;;;1.90;;
75504;SDS011;64085;54.974;73.410;2023-09-12T02:07:38;5.10;;;1.98;;
75504;SDS011;64085;54.974;73.410;2023-09-12T02:10:03;9.07;;;1.73;;
75504;SDS011;64085;54.974;73.410;2023-09-12T02:12:32;6.03;;;2.10;;
75504;SDS011;64085;54.974;73.410;2023-09-12T02:14:57;7.80;;;2.33;;
75504;SDS011;64085;54.974;73.410;2023-09-12T02:17:23;10.63;;;2.80;;
75504;SDS011;64085;54.974;73.410;2023-09-12T02:19:48;3.13;;;1.50;;
75504;SDS011;64085;54.974;73.410;2023-09-12T02:22:14;14.90;;;3.63;;
75504;SDS011;64085;54.974;73.410;2023-09-12T02:24:39;11.40;;;4.80;;
75504;SDS011;64085;54.974;73.410;2023-09-12T02:27:04;16.92;;;4.03;;
75504;SDS011;64085;54.974;73.410;2023-09-12T02:29:30;26.70;;;4.88;;
75504;SDS011;64085;54.974;73.410;2023-09-12T02:31:57;6.38;;;2.75;;
75504;SDS011;64085;54.974;73.410;2023-09-12T02:34:23;7.05;;;2.15;;
75504;SDS011;64085;54.974;73.410;2023-09-12T02:36:48;6.22;;;2.13;;
75504;SDS011;64085;54.974;73.410;2023-09-12T02:39:13;3.20;;;1.88;;
75504;SDS011;64085;54.974;73.410;2023-09-12T02:41:39;12.00;;;2.72;;
75504;SDS011;64085;54.974;73.410;2023-09-12T02:44:05;4.35;;;1.50;;
75504;SDS011;64085;54.974;73.410;2023-09-12T02:46:30;4.47;;;1.95;;
75504;SDS011;64085;54.974;73.410;2023-09-12T02:48:56;8.38;;;3.00;;
75504;SDS011;64085;54.974;73.410;2023-09-12T02:51:21;6.60;;;3.60;;
75504;SDS011;64085;54.974;73.410;2023-09-12T02:53:46;11.52;;;2.95;;
75504;SDS011;64085;54.974;73.410;2023-09-12T02:56:12;7.78;;;1.30;;
75504;SDS011;64085;54.974;73.410;2023-09-12T02:58:37;8.75;;;2.30;;
75504;SDS011;64085;54.974;73.410;2023-09-12T03:01:03;5.38;;;1.65;;
75504;SDS011;64085;54.974;73.410;2023-09-12T03:03:31;5.00;;;1.30;;
75504;SDS011;64085;54.974;73.410;2023-09-12T03:05:57;6.88;;;1.65;;
75504;SDS011;64085;54.974;73.410;2023-09-12T03:08:23;5.28;;;2.53;;
75504;SDS011;64085;54.974;73.410;2023-09-12T03:10:52;4.07;;;2.05;;
75504;SDS011;64085;54.974;73.410;2023-09-12T03:13:19;5.95;;;2.00;;
75504;SDS011;64085;54.974;73.410;2023-09-12T03:15:44;9.57;;;2.55;;
75504;SDS011;64085;54.974;73.410;2023-09-12T03:18:10;17.60;;;4.13;;
75504;SDS011;64085;54.974;73.410;2023-09-12T03:20:37;24.70;;;3.45;;
75504;SDS011;64085;54.974;73.410;2023-09-12T03:23:03;14.13;;;3.17;;
75504;SDS011;64085;54.974;73.410;2023-09-12T03:25:28;22.08;;;5.32;;
75504;SDS011;64085;54.974;73.410;2023-09-12T03:27:53;19.90;;;4.68;;
75504;SDS011;64085;54.974;73.410;2023-09-12T03:30:20;11.57;;;3.35;;
75504;SDS011;64085;54.974;73.410;2023-09-12T03:32:45;19.48;;;6.75;;
75504;SDS011;64085;54.974;73.410;2023-09-12T03:35:11;13.52;;;2.60;;
75504;SDS011;64085;54.974;73.410;2023-09-12T03:37:36;6.63;;;1.83;;
75504;SDS011;64085;54.974;73.410;2023-09-12T03:40:06;14.65;;;3.25;;
75504;SDS011;64085;54.974;73.410;2023-09-12T03:42:31;18.05;;;4.70;;
75504;SDS011;64085;54.974;73.410;2023-09-12T03:44:57;22.42;;;5.65;;
75504;SDS011;64085;54.974;73.410;2023-09-12T03:47:23;20.05;;;8.05;;
75504;SDS011;64085;54.974;73.410;2023-09-12T03:49:48;9.20;;;3.60;;
75504;SDS011;64085;54.974;73.410;2023-09-12T03:52:13;21.95;;;4.93;;
75504;SDS011;64085;54.974;73.410;2023-09-12T03:54:39;12.70;;;4.03;;
75504;SDS011;64085;54.974;73.410;2023-09-12T03:57:04;13.13;;;4.13;;
75504;SDS011;64085;54.974;73.410;2023-09-12T03:59:30;10.07;;;2.90;;
75504;SDS011;64085;54.974;73.410;2023-09-12T04:01:55;10.80;;;4.88;;
75504;SDS011;64085;54.974;73.410;2023-09-12T04:04:21;11.25;;;3.15;;
75504;SDS011;64085;54.974;73.410;2023-09-12T04:06:46;8.77;;;2.85;;
75504;SDS011;64085;54.974;73.410;2023-09-12T04:09:12;6.10;;;3.90;;
75504;SDS011;64085;54.974;73.410;2023-09-12T04:11:37;14.82;;;2.67;;
75504;SDS011;64085;54.974;73.410;2023-09-12T04:14:03;13.70;;;2.42;;
75504;SDS011;64085;54.974;73.410;2023-09-12T04:16:28;7.13;;;2.15;;
75504;SDS011;64085;54.974;73.410;2023-09-12T04:18:53;10.35;;;2.47;;
75504;SDS011;64085;54.974;73.410;2023-09-12T04:21:19;3.65;;;2.10;;
75504;SDS011;64085;54.974;73.410;2023-09-12T04:23:44;2.97;;;1.45;;
75504;SDS011;64085;54.974;73.410;2023-09-12T04:26:10;5.78;;;2.35;;
75504;SDS011;64085;54.974;73.410;2023-09-12T04:28:35;15.40;;;4.55;;
75504;SDS011;64085;54.974;73.410;2023-09-12T04:31:04;9.70;;;2.55;;
75504;SDS011;64085;54.974;73.410;2023-09-12T04:33:29;31.42;;;5.32;;
75504;SDS011;64085;54.974;73.410;2023-09-12T04:35:57;25.40;;;5.70;;
75504;SDS011;64085;54.974;73.410;2023-09-12T04:38:22;30.98;;;8.23;;
75504;SDS011;64085;54.974;73.410;2023-09-12T04:40:55;18.05;;;5.57;;
75504;SDS011;64085;54.974;73.410;2023-09-12T04:43:21;7.57;;;3.05;;
75504;SDS011;64085;54.974;73.410;2023-09-12T04:45:46;2.78;;;1.80;;
75504;SDS011;64085;54.974;73.410;2023-09-12T04:48:13;1.70;;;1.30;;
75504;SDS011;64085;54.974;73.410;2023-09-12T04:50:42;3.92;;;1.38;;
75504;SDS011;64085;54.974;73.410;2023-09-12T04:53:10;2.85;;;1.50;;
75504;SDS011;64085;54.974;73.410;2023-09-12T04:55:36;8.02;;;2.65;;
75504;SDS011;64085;54.974;73.410;2023-09-12T04:58:02;8.55;;;3.10;;
75504;SDS011;64085;54.974;73.410;2023-09-12T05:00:28;22.15;;;5.55;;
75504;SDS011;64085;54.974;73.410;2023-09-12T05:02:53;14.38;;;3.35;;
75504;SDS011;64085;54.974;73.410;2023-09-12T05:05:19;23.48;;;5.55;;
75504;SDS011;64085;54.974;73.410;2023-09-12T05:07:44;16.02;;;4.55;;
75504;SDS011;64085;54.974;73.410;2023-09-12T05:10:10;19.25;;;5.32;;
75504;SDS011;64085;54.974;73.410;2023-09-12T05:12:35;6.93;;;1.63;;
75504;SDS011;64085;54.974;73.410;2023-09-12T05:15:01;6.32;;;2.25;;
75504;SDS011;64085;54.974;73.410;2023-09-12T05:17:27;13.98;;;4.07;;
75504;SDS011;64085;54.974;73.410;2023-09-12T05:19:52;22.77;;;3.42;;
75504;SDS011;64085;54.974;73.410;2023-09-12T05:22:18;4.97;;;1.77;;
75504;SDS011;64085;54.974;73.410;2023-09-12T05:24:43;2.50;;;1.77;;
75504;SDS011;64085;54.974;73.410;2023-09-12T05:27:09;16.38;;;4.22;;
75504;SDS011;64085;54.974;73.410;2023-09-12T05:29:34;2.30;;;1.65;;
75504;SDS011;64085;54.974;73.410;2023-09-12T05:32:00;5.90;;;3.40;;
75504;SDS011;64085;54.974;73.410;2023-09-12T05:34:26;21.15;;;6.57;;
75504;SDS011;64085;54.974;73.410;2023-09-12T05:36:51;22.45;;;4.85;;
75504;SDS011;64085;54.974;73.410;2023-09-12T05:39:16;8.02;;;2.90;;
75504;SDS011;64085;54.974;73.410;2023-09-12T05:41:43;15.25;;;5.18;;
75504;SDS011;64085;54.974;73.410;2023-09-12T05:44:09;14.88;;;4.25;;
75504;SDS011;64085;54.974;73.410;2023-09-12T05:46:37;27.35;;;5.80;;
75504;SDS011;64085;54.974;73.410;2023-09-12T05:49:02;10.63;;;3.53;;
75504;SDS011;64085;54.974;73.410;2023-09-12T05:51:29;15.85;;;3.90;;
75504;SDS011;64085;54.974;73.410;2023-09-12T05:53:54;31.38;;;6.22;;
75504;SDS011;64085;54.974;73.410;2023-09-12T05:56:19;59.35;;;10.32;;
75504;SDS011;64085;54.974;73.410;2023-09-12T05:58:45;14.18;;;3.83;;
75504;SDS011;64085;54.974;73.410;2023-09-12T06:01:11;6.50;;;2.35;;
75504;SDS011;64085;54.974;73.410;2023-09-12T06:03:36;22.42;;;4.47;;
75504;SDS011;64085;54.974;73.410;2023-09-12T06:06:02;7.95;;;2.88;;
75504;SDS011;64085;54.974;73.410;2023-09-12T06:08:27;5.05;;;2.20;;
75504;SDS011;64085;54.974;73.410;2023-09-12T06:10:53;14.93;;;4.72;;
75504;SDS011;64085;54.974;73.410;2023-09-12T06:13:19;17.20;;;5.68;;
75504;SDS011;64085;54.974;73.410;2023-09-12T06:15:45;12.45;;;4.55;;
75504;SDS011;64085;54.974;73.410;2023-09-12T06:18:10;5.68;;;2.58;;
75504;SDS011;64085;54.974;73.410;2023-09-12T06:20:36;3.85;;;1.90;;
75504;SDS011;64085;54.974;73.410;2023-09-12T06:23:01;4.15;;;2.35;;
75504;SDS011;64085;54.974;73.410;2023-09-12T06:25:28;16.30;;;4.95;;
75504;SDS011;64085;54.974;73.410;2023-09-12T06:27:54;6.85;;;2.33;;
75504;SDS011;64085;54.974;73.410;2023-09-12T06:30:19;4.25;;;1.95;;
75504;SDS011;64085;54.974;73.410;2023-09-12T06:32:45;2.13;;;1.90;;
75504;SDS011;64085;54.974;73.410;2023-09-12T06:35:10;12.63;;;3.42;;
75504;SDS011;64085;54.974;73.410;2023-09-12T06:37:37;13.80;;;5.10;;
75504;SDS011;64085;54.974;73.410;2023-09-12T06:40:02;10.27;;;2.67;;
75504;SDS011;64085;54.974;73.410;2023-09-12T06:42:28;5.05;;;1.73;;
75504;SDS011;64085;54.974;73.410;2023-09-12T06:44:54;3.35;;;1.40;;
75504;SDS011;64085;54.974;73.410;2023-09-12T06:47:19;19.33;;;5.72;;
75504;SDS011;64085;54.974;73.410;2023-09-12T06:49:45;28.58;;;5.82;;
75504;SDS011;64085;54.974;73.410;2023-09-12T06:52:10;12.00;;;3.42;;
75504;SDS011;64085;54.974;73.410;2023-09-12T06:54:36;3.90;;;1.75;;
75504;SDS011;64085;54.974;73.410;2023-09-12T06:57:01;2.03;;;1.63;;
75504;SDS011;64085;54.974;73.410;2023-09-12T06:59:27;12.57;;;2.97;;
75504;SDS011;64085;54.974;73.410;2023-09-12T07:01:52;6.85;;;2.63;;
75504;SDS011;64085;54.974;73.410;2023-09-12T07:04:18;9.23;;;2.80;;
75504;SDS011;64085;54.974;73.410;2023-09-12T07:06:43;4.25;;;1.65;;
75504;SDS011;64085;54.974;73.410;2023-09-12T07:09:09;4.95;;;1.60;;
75504;SDS011;64085;54.974;73.410;2023-09-12T07:11:36;5.80;;;1.75;;
75504;SDS011;64085;54.974;73.410;2023-09-12T07:14:02;12.20;;;4.07;;
75504;SDS011;64085;54.974;73.410;2023-09-12T07:16:29;2.95;;;1.73;;
75504;SDS011;64085;54.974;73.410;2023-09-12T07:18:55;2.35;;;1.45;;
75504;SDS011;64085;54.974;73.410;2023-09-12T07:21:20;4.40;;;1.65;;
75504;SDS011;64085;54.974;73.410;2023-09-12T07:23:47;3.33;;;1.77;;
75504;SDS011;64085;54.974;73.410;2023-09-12T07:26:13;3.13;;;1.70;;
75504;SDS011;64085;54.974;73.410;2023-09-12T07:28:39;8.73;;;2.25;;
75504;SDS011;64085;54.974;73.410;2023-09-12T07:31:04;11.88;;;2.95;;
75504;SDS011;64085;54.974;73.410;2023-09-12T07:33:29;9.40;;;3.65;;
75504;SDS011;64085;54.974;73.410;2023-09-12T07:35:55;11.27;;;2.80;;
75504;SDS011;64085;54.974;73.410;2023-09-12T07:38:21;2.47;;;1.65;;
75504;SDS011;64085;54.974;73.410;2023-09-12T07:40:46;2.58;;;1.70;;
75504;SDS011;64085;54.974;73.410;2023-09-12T07:43:12;2.28;;;1.70;;
75504;SDS011;64085;54.974;73.410;2023-09-12T07:45:37;3.13;;;1.58;;
75504;SDS011;64085;54.974;73.410;2023-09-12T07:48:06;4.70;;;1.58;;
75504;SDS011;64085;54.974;73.410;2023-09-12T07:50:32;3.33;;;1.95;;
75504;SDS011;64085;54.974;73.410;2023-09-12T07:52:57;1.23;;;1.13;;
75504;SDS011;64085;54.974;73.410;2023-09-12T07:55:23;2.35;;;1.90;;
75504;SDS011;64085;54.974;73.410;2023-09-12T07:57:48;6.63;;;1.92;;
75504;SDS011;64085;54.974;73.410;2023-09-12T08:00:14;7.53;;;1.83;;
75504;SDS011;64085;54.974;73.410;2023-09-12T08:02:39;13.93;;;3.90;;
75504;SDS011;64085;54.974;73.410;2023-09-12T08:05:05;6.22;;;2.10;;
75504;SDS011;64085;54.974;73.410;2023-09-12T08:07:31;9.00;;;2.75;;
75504;SDS011;64085;54.974;73.410;2023-09-12T08:09:57;3.80;;;1.90;;
75504;SDS011;64085;54.974;73.410;2023-09-12T08:12:23;3.95;;;1.98;;
75504;SDS011;64085;54.974;73.410;2023-09-12T08:14:49;4.40;;;1.98;;
75504;SDS011;64085;54.974;73.410;2023-09-12T08:17:14;5.65;;;2.42;;
75504;SDS011;64085;54.974;73.410;2023-09-12T08:19:40;2.20;;;1.38;;
75504;SDS011;64085;54.974;73.410;2023-09-12T08:22:05;3.20;;;1.95;;
75504;SDS011;64085;54.974;73.410;2023-09-12T08:24:31;3.10;;;1.48;;
75504;SDS011;64085;54.974;73.410;2023-09-12T08:26:56;3.22;;;1.50;;
75504;SDS011;64085;54.974;73.410;2023-09-12T08:29:22;2.45;;;1.55;;
75504;SDS011;64085;54.974;73.410;2023-09-12T08:31:47;1.95;;;1.23;;
75504;SDS011;64085;54.974;73.410;2023-09-12T08:34:13;3.13;;;1.50;;
75504;SDS011;64085;54.974;73.410;2023-09-12T08:36:38;2.00;;;1.80;;
75504;SDS011;64085;54.974;73.410;2023-09-12T08:39:04;3.80;;;1.85;;
75504;SDS011;64085;54.974;73.410;2023-09-12T08:41:31;2.95;;;1.55;;
75504;SDS011;64085;54.974;73.410;2023-09-12T08:43:57;2.70;;;1.27;;
75504;SDS011;64085;54.974;73.410;2023-09-12T08:46:23;2.58;;;1.60;;
75504;SDS011;64085;54.974;73.410;2023-09-12T08:48:49;5.85;;;1.67;;
75504;SDS011;64085;54.974;73.410;2023-09-12T08:51:14;4.05;;;1.65;;
75504;SDS011;64085;54.974;73.410;2023-09-12T08:53:40;2.78;;;1.42;;
75504;SDS011;64085;54.974;73.410;2023-09-12T08:56:05;2.50;;;1.70;;
75504;SDS011;64085;54.974;73.410;2023-09-12T08:58:32;1.40;;;1.30;;
75504;SDS011;64085;54.974;73.410;2023-09-12T09:00:57;1.33;;;1.20;;
75504;SDS011;64085;54.974;73.410;2023-09-12T09:03:23;2.40;;;1.98;;
75504;SDS011;64085;54.974;73.410;2023-09-12T09:05:49;3.38;;;1.70;;
75504;SDS011;64085;54.974;73.410;2023-09-12T09:08:16;2.28;;;1.83;;
75504;SDS011;64085;54.974;73.410;2023-09-12T09:10:58;1.75;;;1.63;;
75504;SDS011;64085;54.974;73.410;2023-09-12T09:13:24;1.95;;;1.83;;
75504;SDS011;64085;54.974;73.410;2023-09-12T09:15:53;2.60;;;1.23;;
75504;SDS011;64085;54.974;73.410;2023-09-12T09:18:49;1.80;;;1.35;;
75504;SDS011;64085;54.974;73.410;2023-09-12T09:21:18;1.83;;;1.67;;
75504;SDS011;64085;54.974;73.410;2023-09-12T09:23:45;3.03;;;1.25;;
75504;SDS011;64085;54.974;73.410;2023-09-12T09:26:11;4.70;;;1.83;;
75504;SDS011;64085;54.974;73.410;2023-09-12T09:28:36;3.47;;;1.27;;
75504;SDS011;64085;54.974;73.410;2023-09-12T09:31:02;4.57;;;1.75;;
75504;SDS011;64085;54.974;73.410;2023-09-12T09:33:31;3.15;;;2.03;;
75504;SDS011;64085;54.974;73.410;2023-09-12T09:36:03;1.48;;;1.38;;
75504;SDS011;64085;54.974;73.410;2023-09-12T09:38:29;3.58;;;2.17;;
75504;SDS011;64085;54.974;73.410;2023-09-12T09:40:55;3.08;;;2.00;;
75504;SDS011;64085;54.974;73.410;2023-09-12T09:43:20;3.65;;;2.30;;
75504;SDS011;64085;54.974;73.410;2023-09-12T09:45:46;2.05;;;1.33;;
75504;SDS011;64085;54.974;73.410;2023-09-12T09:48:18;4.75;;;1.92;;
75504;SDS011;64085;54.974;73.410;2023-09-12T09:50:44;3.13;;;1.98;;
75504;SDS011;64085;54.974;73.410;2023-09-12T09:53:09;1.52;;;1.10;;
75504;SDS011;64085;54.974;73.410;2023-09-12T09:55:36;3.30;;;1.77;;
75504;SDS011;64085;54.974;73.410;2023-09-12T09:58:01;2.38;;;1.58;;
75504;SDS011;64085;54.974;73.410;2023-09-12T10:00:28;2.22;;;2.03;;
75504;SDS011;64085;54.974;73.410;2023-09-12T10:02:54;2.28;;;1.10;;
75504;SDS011;64085;54.974;73.410;2023-09-12T10:05:20;2.28;;;1.73;;
75504;SDS011;64085;54.974;73.410;2023-09-12T10:07:47;5.15;;;2.22;;
75504;SDS011;64085;54.974;73.410;2023-09-12T10:10:14;6.25;;;2.88;;
75504;SDS011;64085;54.974;73.410;2023-09-12T10:12:43;1.30;;;1.20;;
75504;SDS011;64085;54.974;73.410;2023-09-12T10:15:09;3.22;;;2.00;;
75504;SDS011;64085;54.974;73.410;2023-09-12T10:17:37;4.05;;;2.22;;
75504;SDS011;64085;54.974;73.410;2023-09-12T10:20:05;3.22;;;2.22;;
75504;SDS011;64085;54.974;73.410;2023-09-12T10:22:39;2.88;;;1.83;;
75504;SDS011;64085;54.974;73.410;2023-09-12T10:25:06;4.60;;;2.25;;
75504;SDS011;64085;54.974;73.410;2023-09-12T10:27:32;4.20;;;1.85;;
75504;SDS011;64085;54.974;73.410;2023-09-12T10:29:58;1.75;;;1.60;;
75504;SDS011;64085;54.974;73.410;2023-09-12T10:32:25;2.85;;;1.80;;
75504;SDS011;64085;54.974;73.410;2023-09-12T10:34:52;4.30;;;1.90;;
75504;SDS011;64085;54.974;73.410;2023-09-12T10:37:18;3.55;;;2.55;;
75504;SDS011;64085;54.974;73.410;2023-09-12T10:39:45;3.85;;;2.65;;
75504;SDS011;64085;54.974;73.410;2023-09-12T10:42:10;2.15;;;1.80;;
75504;SDS011;64085;54.974;73.410;2023-09-12T10:44:37;4.45;;;2.40;;
75504;SDS011;64085;54.974;73.410;2023-09-12T10:47:06;3.67;;;2.05;;
75504;SDS011;64085;54.974;73.410;2023-09-12T10:49:32;2.60;;;2.00;;
75504;SDS011;64085;54.974;73.410;2023-09-12T10:51:58;4.38;;;1.92;;
75504;SDS011;64085;54.974;73.410;2023-09-12T10:54:24;2.17;;;1.65;;
75504;SDS011;64085;54.974;73.410;2023-09-12T10:57:06;2.97;;;1.70;;
75504;SDS011;64085;54.974;73.410;2023-09-12T10:59:32;4.43;;;2.38;;
75504;SDS011;64085;54.974;73.410;2023-09-12T11:04:44;3.75;;;2.47;;
75504;SDS011;64085;54.974;73.410;2023-09-12T11:07:52;2.40;;;2.00;;
75504;SDS011;64085;54.974;73.410;2023-09-12T11:12:54;2.08;;;1.80;;
75504;SDS011;64085;54.974;73.410;2023-09-12T11:15:22;4.30;;;1.85;;
75504;SDS011;64085;54.974;73.410;2023-09-12T11:18:09;4.63;;;1.95;;
75504;SDS011;64085;54.974;73.410;2023-09-12T11:20:53;2.10;;;1.73;;
75504;SDS011;64085;54.974;73.410;2023-09-12T11:23:23;2.40;;;1.73;;
75504;SDS011;64085;54.974;73.410;2023-09-12T11:26:11;3.63;;;1.95;;
75504;SDS011;64085;54.974;73.410;2023-09-12T11:28:38;3.08;;;1.77;;
75504;SDS011;64085;54.974;73.410;2023-09-12T11:31:04;5.05;;;2.13;;
75504;SDS011;64085;54.974;73.410;2023-09-12T11:33:31;2.90;;;2.25;;
75504;SDS011;64085;54.974;73.410;2023-09-12T11:35:57;2.75;;;2.13;;
75504;SDS011;64085;54.974;73.410;2023-09-12T11:38:28;2.85;;;2.47;;
75504;SDS011;64085;54.974;73.410;2023-09-12T11:40:56;2.00;;;1.20;;
75504;SDS011;64085;54.974;73.410;2023-09-12T11:43:22;8.20;;;1.98;;
75504;SDS011;64085;54.974;73.410;2023-09-12T11:45:48;2.63;;;1.88;;
75504;SDS011;64085;54.974;73.410;2023-09-12T11:48:14;4.97;;;2.28;;
75504;SDS011;64085;54.974;73.410;2023-09-12T11:50:41;2.42;;;2.22;;
75504;SDS011;64085;54.974;73.410;2023-09-12T11:53:08;6.20;;;2.50;;
75504;SDS011;64085;54.974;73.410;2023-09-12T11:55:47;3.67;;;2.08;;
75504;SDS011;64085;54.974;73.410;2023-09-12T11:58:13;4.90;;;2.60;;
75504;SDS011;64085;54.974;73.410;2023-09-12T12:00:43;3.45;;;1.75;;
75504;SDS011;64085;54.974;73.410;2023-09-12T12:03:11;2.65;;;2.40;;
75504;SDS011;64085;54.974;73.410;2023-09-12T12:05:36;3.75;;;3.35;;
75504;SDS011;64085;54.974;73.410;2023-09-12T12:08:02;4.88;;;2.85;;
75504;SDS011;64085;54.974;73.410;2023-09-12T12:10:28;9.88;;;5.20;;
75504;SDS011;64085;54.974;73.410;2023-09-12T12:12:53;3.40;;;2.92;;
75504;SDS011;64085;54.974;73.410;2023-09-12T12:15:19;5.50;;;3.15;;
75504;SDS011;64085;54.974;73.410;2023-09-12T12:17:45;4.53;;;2.58;;
75504;SDS011;64085;54.974;73.410;2023-09-12T12:20:10;4.85;;;3.47;;
75504;SDS011;64085;54.974;73.410;2023-09-12T12:22:39;4.28;;;2.92;;
75504;SDS011;64085;54.974;73.410;2023-09-12T12:27:30;5.00;;;1.93;;
75504;SDS011;64085;54.974;73.410;2023-09-12T12:29:56;7.60;;;4.15;;
75504;SDS011;64085;54.974;73.410;2023-09-12T12:32:21;3.67;;;2.72;;
75504;SDS011;64085;54.974;73.410;2023-09-12T12:34:49;4.90;;;2.55;;
75504;SDS011;64085;54.974;73.410;2023-09-12T12:37:15;3.22;;;2.40;;
75504;SDS011;64085;54.974;73.410;2023-09-12T12:39:43;7.28;;;2.65;;
75504;SDS011;64085;54.974;73.410;2023-09-12T12:42:09;1.58;;;1.48;;
75504;SDS011;64085;54.974;73.410;2023-09-12T12:44:34;4.78;;;2.50;;
75504;SDS011;64085;54.974;73.410;2023-09-12T12:47:06;3.42;;;2.28;;
75504;SDS011;64085;54.974;73.410;2023-09-12T12:49:35;3.92;;;2.95;;
75504;SDS011;64085;54.974;73.410;2023-09-12T12:52:01;4.47;;;2.35;;
75504;SDS011;64085;54.974;73.410;2023-09-12T12:54:30;7.28;;;4.47;;
75504;SDS011;64085;54.974;73.410;2023-09-12T12:56:56;5.60;;;3.17;;
75504;SDS011;64085;54.974;73.410;2023-09-12T12:59:22;7.00;;;3.50;;
75504;SDS011;64085;54.974;73.410;2023-09-12T13:01:47;4.97;;;3.53;;
75504;SDS011;64085;54.974;73.410;2023-09-12T13:04:12;5.22;;;3.08;;
75504;SDS011;64085;54.974;73.410;2023-09-12T13:06:38;5.72;;;4.30;;
75504;SDS011;64085;54.974;73.410;2023-09-12T13:09:05;5.90;;;4.63;;
75504;SDS011;64085;54.974;73.410;2023-09-12T13:11:33;8.25;;;4.47;;
75504;SDS011;64085;54.974;73.410;2023-09-12T13:14:00;5.70;;;3.55;;
75504;SDS011;64085;54.974;73.410;2023-09-12T13:16:25;4.90;;;3.47;;
75504;SDS011;64085;54.974;73.410;2023-09-12T13:18:51;6.57;;;2.90;;
75504;SDS011;64085;54.974;73.410;2023-09-12T13:21:16;6.18;;;3.60;;
75504;SDS011;64085;54.974;73.410;2023-09-12T13:23:42;7.95;;;4.97;;
75504;SDS011;64085;54.974;73.410;2023-09-12T13:26:08;7.68;;;4.78;;
75504;SDS011;64085;54.974;73.410;2023-09-12T13:28:34;6.57;;;3.90;;
75504;SDS011;64085;54.974;73.410;2023-09-12T13:30:59;5.97;;;4.13;;
75504;SDS011;64085;54.974;73.410;2023-09-12T13:33:24;7.40;;;5.03;;
75504;SDS011;64085;54.974;73.410;2023-09-12T13:35:50;9.95;;;5.90;;
75504;SDS011;64085;54.974;73.410;2023-09-12T13:38:16;10.50;;;5.63;;
75504;SDS011;64085;54.974;73.410;2023-09-12T13:40:42;8.80;;;5.47;;
75504;SDS011;64085;54.974;73.410;2023-09-12T13:43:08;9.90;;;6.22;;
75504;SDS011;64085;54.974;73.410;2023-09-12T13:45:34;7.63;;;5.38;;
75504;SDS011;64085;54.974;73.410;2023-09-12T13:48:00;10.60;;;6.15;;
75504;SDS011;64085;54.974;73.410;2023-09-12T13:50:26;11.90;;;5.70;;
75504;SDS011;64085;54.974;73.410;2023-09-12T13:52:53;9.07;;;4.45;;
75504;SDS011;64085;54.974;73.410;2023-09-12T13:55:19;9.35;;;5.97;;
75504;SDS011;64085;54.974;73.410;2023-09-12T13:57:44;6.05;;;3.88;;
75504;SDS011;64085;54.974;73.410;2023-09-12T14:00:10;5.97;;;4.80;;
75504;SDS011;64085;54.974;73.410;2023-09-12T14:02:35;7.05;;;3.80;;
75504;SDS011;64085;54.974;73.410;2023-09-12T14:05:01;3.80;;;2.67;;
75504;SDS011;64085;54.974;73.410;2023-09-12T14:07:26;5.47;;;3.63;;
75504;SDS011;64085;54.974;73.410;2023-09-12T14:09:52;11.23;;;4.72;;
75504;SDS011;64085;54.974;73.410;2023-09-12T14:12:21;5.13;;;3.03;;
75504;SDS011;64085;54.974;73.410;2023-09-12T14:14:46;5.72;;;4.00;;
75504;SDS011;64085;54.974;73.410;2023-09-12T14:17:13;6.38;;;3.20;;
75504;SDS011;64085;54.974;73.410;2023-09-12T14:19:39;7.57;;;4.10;;
75504;SDS011;64085;54.974;73.410;2023-09-12T14:22:04;7.13;;;3.38;;
75504;SDS011;64085;54.974;73.410;2023-09-12T14:24:29;10.73;;;4.35;;
75504;SDS011;64085;54.974;73.410;2023-09-12T14:26:55;7.93;;;5.40;;
75504;SDS011;64085;54.974;73.410;2023-09-12T14:29:20;7.72;;;3.90;;
75504;SDS011;64085;54.974;73.410;2023-09-12T14:31:46;5.70;;;4.00;;
75504;SDS011;64085;54.974;73.410;2023-09-12T14:34:18;9.05;;;4.05;;
75504;SDS011;64085;54.974;73.410;2023-09-12T14:36:44;4.43;;;3.10;;
75504;SDS011;64085;54.974;73.410;2023-09-12T14:39:11;7.35;;;3.85;;